Terminal Aerodrome Forecast
Issued by NWS

Home | Current Version | Previous Version | Text Only | Print | Product List | Glossary On
Versions: 1 2 3 4 5 6 7 8 9 10 11 12 13 14 15 16 17 18 19 20 21 22 23 24 25 26 27 28 29 30 31
000
FTUS45 KBOU 072340
TAFAPA
TAF
KAPA 072340Z 0800/0824 05006KT P6SM BKN018 BKN025
     FM080200 VRB04KT P6SM SCT025 BKN040
     FM080300 14006KT P6SM FEW040
     FM080800 17006KT P6SM FEW060
     FM081600 08007KT P6SM FEW050 SCT200
     FM082300 14007KT P6SM SCT080 BKN140=

USA.gov is the U.S. government's official web portal to all federal, state and local government web resources and services.